createdAt,value
2019-01-20T00:02:24.444Z,19.90
2019-01-20T00:04:51.017Z,21.73
2019-01-20T00:07:17.319Z,24.87
2019-01-20T00:09:43.898Z,24.87
2019-01-20T00:12:10.340Z,22.17
2019-01-20T00:14:36.914Z,23.67
2019-01-20T00:17:03.388Z,23.33
2019-01-20T00:19:29.926Z,22.30
2019-01-20T00:21:56.288Z,20.60
2019-01-20T00:24:22.602Z,21.07
2019-01-20T00:26:48.976Z,21.90
2019-01-20T00:29:15.562Z,21.67
2019-01-20T00:31:42.177Z,25.37
2019-01-20T00:34:08.513Z,25.33
2019-01-20T00:36:34.839Z,25.70
2019-01-20T00:39:01.272Z,24.93
2019-01-20T00:41:29.507Z,22.40
2019-01-20T00:43:56.069Z,26.33
2019-01-20T00:46:22.423Z,23.13
2019-01-20T00:48:49.008Z,22.80
2019-01-20T00:51:15.910Z,20.70
2019-01-20T00:53:42.235Z,23.43
2019-01-20T00:56:08.778Z,23.23
2019-01-20T00:58:35.384Z,21.80
2019-01-20T01:01:01.727Z,26.53
2019-01-20T01:03:28.071Z,28.27
2019-01-20T01:05:54.650Z,35.47
2019-01-20T01:08:21.332Z,26.03
2019-01-20T01:10:47.632Z,23.97
2019-01-20T01:13:16.374Z,23.27
2019-01-20T01:15:42.706Z,27.33
2019-01-20T01:18:09.285Z,25.70
2019-01-20T01:20:35.983Z,24.33
2019-01-20T01:23:02.551Z,23.57
2019-01-20T01:25:30.291Z,25.20
2019-01-20T01:27:56.639Z,26.63
2019-01-20T01:30:23.363Z,26.27
2019-01-20T01:32:49.992Z,29.60
2019-01-20T01:35:16.399Z,28.23
2019-01-20T01:37:42.766Z,26.17
2019-01-20T01:40:14.930Z,24.30
2019-01-20T01:42:41.584Z,21.43
2019-01-20T01:45:12.602Z,26.30
2019-01-20T01:47:39.163Z,25.40
2019-01-20T01:50:07.644Z,29.80
2019-01-20T01:52:33.980Z,26.83
2019-01-20T01:55:00.328Z,24.03
2019-01-20T01:57:26.661Z,26.73
2019-01-20T01:59:52.979Z,26.93
2019-01-20T02:02:19.318Z,26.47
2019-01-20T02:04:46.097Z,26.47
2019-01-20T02:07:12.407Z,23.53
2019-01-20T02:09:38.994Z,26.67
2019-01-20T02:12:05.588Z,26.40
2019-01-20T02:14:31.891Z,22.37
2019-01-20T02:16:58.474Z,26.30
2019-01-20T02:19:24.786Z,27.83
2019-01-20T02:21:51.418Z,29.63
2019-01-20T02:24:17.849Z,28.70
2019-01-20T02:26:44.758Z,26.17
2019-01-20T02:29:11.088Z,24.43
2019-01-20T02:31:37.702Z,23.47
2019-01-20T02:34:04.015Z,22.90
2019-01-20T02:36:30.348Z,21.47
2019-01-20T02:38:56.898Z,27.67
2019-01-20T02:41:23.230Z,20.93
2019-01-20T02:43:49.804Z,25.43
2019-01-20T02:46:16.349Z,29.40
2019-01-20T02:48:42.973Z,24.27
2019-01-20T02:51:09.248Z,25.87
2019-01-20T02:53:35.874Z,28.37
2019-01-20T02:56:02.385Z,27.67
2019-01-20T02:58:29.112Z,26.90
2019-01-20T03:00:55.456Z,21.03
2019-01-20T03:03:22.076Z,26.93
2019-01-20T03:05:49.115Z,28.67
2019-01-20T03:08:15.735Z,30.90
2019-01-20T03:10:42.335Z,24.83
2019-01-20T03:13:08.908Z,26.63
2019-01-20T03:15:35.249Z,24.73
2019-01-20T03:18:01.878Z,26.17
2019-01-20T03:20:28.521Z,27.13
2019-01-20T03:22:54.837Z,25.93
2019-01-20T03:25:21.280Z,24.40
2019-01-20T03:27:47.593Z,27.87
2019-01-20T03:30:18.582Z,27.43
2019-01-20T03:32:44.915Z,22.40
2019-01-20T03:35:13.457Z,21.27
2019-01-20T03:37:40.047Z,25.43
2019-01-20T03:40:12.109Z,32.87
2019-01-20T03:42:39.833Z,30.40
2019-01-20T03:45:10.960Z,24.00
2019-01-20T03:47:37.342Z,25.70
2019-01-20T03:50:07.177Z,27.93
2019-01-20T03:52:33.729Z,29.33
2019-01-20T03:55:00.276Z,27.53
2019-01-20T03:57:27.586Z,22.93
2019-01-20T03:59:54.175Z,25.77
2019-01-20T04:02:21.987Z,23.57
2019-01-20T04:04:48.319Z,29.37
2019-01-20T04:07:14.648Z,22.10
2019-01-20T04:09:42.051Z,26.27
2019-01-20T04:12:08.631Z,21.30
2019-01-20T04:14:35.280Z,29.90
2019-01-20T04:17:01.835Z,23.20
2019-01-20T04:19:28.216Z,24.23
2019-01-20T04:21:54.775Z,23.00
2019-01-20T04:24:21.379Z,23.87
2019-01-20T04:26:47.751Z,25.77
2019-01-20T04:29:15.206Z,26.53
2019-01-20T04:31:41.534Z,22.53
2019-01-20T04:34:07.859Z,24.97
2019-01-20T04:36:34.480Z,22.67
2019-01-20T04:39:00.781Z,25.77
2019-01-20T04:41:27.389Z,29.07
2019-01-20T04:43:54.018Z,24.47
2019-01-20T04:46:21.359Z,24.27
2019-01-20T04:48:47.996Z,25.87
2019-01-20T04:51:14.302Z,26.50
2019-01-20T04:53:51.241Z,24.50
2019-01-20T04:56:18.059Z,27.50
2019-01-20T04:58:44.406Z,27.23
2019-01-20T05:01:10.740Z,26.37
2019-01-20T05:03:37.051Z,23.37
2019-01-20T05:06:03.388Z,29.97
2019-01-20T05:08:29.678Z,24.30
2019-01-20T05:10:56.314Z,24.63
2019-01-20T05:13:22.863Z,26.50
2019-01-20T05:15:49.222Z,31.33
2019-01-20T05:18:15.536Z,32.60
2019-01-20T05:20:41.893Z,19.80
2019-01-20T05:23:08.450Z,23.97
2019-01-20T05:25:35.043Z,23.63
2019-01-20T05:28:01.512Z,27.90
2019-01-20T05:30:27.831Z,21.53
2019-01-20T05:32:54.173Z,23.87
2019-01-20T05:35:20.503Z,34.40
2019-01-20T05:37:46.837Z,26.73
2019-01-20T05:40:18.474Z,30.70
2019-01-20T05:42:46.576Z,25.47
2019-01-20T05:45:19.018Z,23.80
2019-01-20T05:47:45.430Z,19.90
2019-01-20T05:50:13.835Z,36.27
2019-01-20T05:52:40.256Z,26.37
2019-01-20T05:55:12.146Z,23.33
2019-01-20T05:57:38.753Z,20.57
2019-01-20T06:00:16.280Z,23.27
2019-01-20T06:02:42.601Z,26.97
2019-01-20T06:05:09.422Z,21.97
2019-01-20T06:07:36.531Z,25.33
2019-01-20T06:10:08.145Z,20.50
2019-01-20T06:12:34.470Z,25.97
2019-01-20T06:15:00.864Z,29.97
2019-01-20T06:17:28.800Z,19.93
2019-01-20T06:19:55.127Z,22.77
2019-01-20T06:22:21.492Z,25.00
2019-01-20T06:24:47.815Z,25.57
2019-01-20T06:27:14.560Z,18.73
2019-01-20T06:29:40.870Z,26.40
2019-01-20T06:32:07.217Z,24.43
2019-01-20T06:34:33.511Z,34.10
2019-01-20T06:36:59.857Z,26.73
2019-01-20T06:39:26.697Z,20.70
2019-01-20T06:41:53.053Z,20.13
2019-01-20T06:44:19.656Z,22.03
2019-01-20T06:46:46.000Z,21.60
2019-01-20T06:49:12.585Z,24.43
2019-01-20T06:51:39.159Z,19.63
2019-01-20T06:54:05.487Z,22.70
2019-01-20T06:56:31.838Z,30.00
2019-01-20T06:58:58.170Z,25.57
2019-01-20T07:01:24.528Z,55.60
2019-01-20T07:03:51.239Z,25.50
2019-01-20T07:06:17.837Z,22.77
2019-01-20T07:08:44.166Z,20.67
2019-01-20T07:11:10.786Z,24.80
2019-01-20T07:13:37.449Z,26.33
2019-01-20T07:16:04.041Z,25.80
2019-01-20T07:18:30.393Z,27.43
2019-01-20T07:20:56.949Z,30.77
2019-01-20T07:23:23.287Z,26.17
2019-01-20T07:25:49.618Z,29.97
2019-01-20T07:28:16.218Z,24.47
2019-01-20T07:30:42.792Z,34.73
2019-01-20T07:33:09.539Z,23.13
2019-01-20T07:35:36.143Z,24.30
2019-01-20T07:38:02.763Z,31.50
2019-01-20T07:40:29.362Z,27.10
2019-01-20T07:42:55.960Z,27.10
2019-01-20T07:45:22.285Z,33.70
2019-01-20T07:47:48.739Z,24.77
2019-01-20T07:50:20.412Z,26.83
2019-01-20T07:52:48.947Z,29.23
2019-01-20T07:55:15.270Z,26.50
2019-01-20T07:57:41.838Z,27.17
2019-01-20T08:00:15.148Z,25.50
2019-01-20T08:02:41.495Z,30.13
2019-01-20T08:05:08.591Z,28.07
2019-01-20T08:07:34.930Z,29.30
2019-01-20T08:10:03.170Z,22.93
2019-01-20T08:12:29.493Z,35.07
2019-01-20T08:14:56.366Z,30.67
2019-01-20T08:17:22.992Z,24.40
2019-01-20T08:19:49.287Z,26.30
2019-01-20T08:22:15.877Z,24.83
2019-01-20T08:24:42.257Z,24.30
2019-01-20T08:27:08.619Z,24.60
2019-01-20T08:29:35.186Z,23.43
2019-01-20T08:32:01.567Z,22.10
2019-01-20T08:34:27.862Z,24.97
2019-01-20T08:36:54.295Z,23.63
2019-01-20T08:39:20.918Z,27.07
2019-01-20T08:41:47.268Z,27.40
2019-01-20T08:44:13.708Z,28.67
2019-01-20T08:46:46.035Z,29.03
2019-01-20T08:49:12.447Z,27.00
2019-01-20T08:51:38.895Z,29.30
2019-01-20T08:54:05.501Z,28.03
2019-01-20T08:56:32.091Z,29.60
2019-01-20T08:58:58.419Z,30.13
2019-01-20T09:01:24.990Z,32.97
2019-01-20T09:03:51.595Z,26.30
2019-01-20T09:06:18.201Z,36.50
2019-01-20T09:08:44.536Z,36.03
2019-01-20T09:11:12.150Z,33.37
2019-01-20T09:13:40.263Z,31.47
2019-01-20T09:16:06.916Z,34.43
2019-01-20T09:18:33.632Z,26.70
2019-01-20T09:20:59.981Z,31.50
2019-01-20T09:23:26.587Z,35.93
2019-01-20T09:25:52.926Z,27.70
2019-01-20T09:28:19.273Z,34.27
2019-01-20T09:30:45.866Z,31.23
2019-01-20T09:33:12.214Z,35.60
2019-01-20T09:35:38.809Z,30.33
2019-01-20T09:38:05.408Z,38.27
2019-01-20T09:40:31.778Z,37.33
2019-01-20T09:42:58.378Z,33.63
2019-01-20T09:45:31.073Z,29.40
2019-01-20T09:47:58.110Z,32.83
2019-01-20T09:50:26.415Z,35.60
2019-01-20T09:52:53.826Z,40.53
2019-01-20T09:55:20.620Z,27.47
2019-01-20T09:57:46.925Z,25.07
2019-01-20T10:00:27.680Z,42.53
2019-01-20T10:02:54.552Z,35.20
2019-01-20T10:05:21.181Z,33.00
2019-01-20T10:07:48.632Z,33.07
2019-01-20T10:10:16.886Z,33.83
2019-01-20T10:12:43.500Z,28.20
2019-01-20T10:15:13.683Z,25.87
2019-01-20T10:17:40.002Z,34.50
2019-01-20T10:20:20.317Z,33.20
2019-01-20T10:22:46.945Z,33.40
2019-01-20T10:25:15.352Z,25.33
2019-01-20T10:27:41.957Z,22.37
2019-01-20T10:30:13.978Z,25.60
2019-01-20T10:32:40.441Z,28.50
2019-01-20T10:35:07.693Z,31.53
2019-01-20T10:37:35.336Z,32.60
2019-01-20T10:40:01.731Z,27.57
2019-01-20T10:42:28.299Z,31.03
2019-01-20T10:44:54.661Z,26.13
2019-01-20T10:47:21.237Z,27.30
2019-01-20T10:49:47.882Z,30.80
2019-01-20T10:52:14.682Z,27.03
2019-01-20T10:54:41.057Z,23.50
2019-01-20T10:57:07.454Z,28.27
2019-01-20T10:59:33.892Z,23.53
2019-01-20T11:02:00.560Z,24.40
2019-01-20T11:04:27.155Z,32.43
2019-01-20T11:06:53.767Z,29.33
2019-01-20T11:09:20.118Z,25.07
2019-01-20T11:11:46.702Z,30.20
2019-01-20T11:14:13.525Z,23.27
2019-01-20T11:16:39.840Z,27.40
2019-01-20T11:19:06.451Z,32.20
2019-01-20T11:21:33.062Z,35.87
2019-01-20T11:23:59.487Z,26.33
2019-01-20T11:26:26.380Z,33.10
2019-01-20T11:28:53.312Z,25.50
2019-01-20T11:31:19.714Z,24.60
2019-01-20T11:33:46.325Z,22.43
2019-01-20T11:36:12.649Z,27.10
2019-01-20T11:38:39.106Z,23.03
2019-01-20T11:41:05.663Z,20.10
2019-01-20T11:43:32.022Z,20.30
2019-01-20T11:45:58.344Z,24.40
2019-01-20T11:48:24.799Z,21.40
2019-01-20T11:50:51.114Z,25.67
2019-01-20T11:53:17.484Z,23.37
2019-01-20T11:55:43.830Z,31.70
2019-01-20T11:58:10.475Z,26.90
2019-01-20T12:00:37.195Z,29.53
2019-01-20T12:03:06.612Z,30.00
2019-01-20T12:05:33.771Z,29.30
2019-01-20T12:08:00.371Z,27.90
2019-01-20T12:10:27.144Z,24.73
2019-01-20T12:12:55.612Z,28.47
2019-01-20T12:15:21.949Z,28.30
2019-01-20T12:17:48.514Z,27.03
2019-01-20T12:20:15.778Z,27.07
2019-01-20T12:22:42.505Z,24.50
2019-01-20T12:25:19.306Z,22.00
2019-01-20T12:27:45.916Z,28.50
2019-01-20T12:30:22.225Z,24.20
2019-01-20T12:32:48.849Z,24.80
2019-01-20T12:35:15.168Z,38.50
2019-01-20T12:37:41.790Z,26.47
2019-01-20T12:40:18.672Z,26.73
2019-01-20T12:42:45.019Z,22.37
2019-01-20T12:45:11.958Z,23.00
2019-01-20T12:47:38.629Z,22.03
2019-01-20T12:50:10.456Z,24.30
2019-01-20T12:52:36.773Z,20.33
2019-01-20T12:55:05.386Z,24.43
2019-01-20T12:57:31.983Z,17.20
2019-01-20T12:59:58.344Z,17.30
2019-01-20T13:02:24.666Z,17.30
2019-01-20T13:04:51.263Z,16.97
2019-01-20T13:07:17.849Z,16.33
2019-01-20T13:09:44.148Z,17.03
2019-01-20T13:12:10.736Z,16.47
2019-01-20T13:14:39.058Z,20.93
2019-01-20T13:17:08.122Z,20.73
2019-01-20T13:19:34.782Z,22.73
2019-01-20T13:22:01.161Z,17.87
2019-01-20T13:24:27.756Z,18.43
2019-01-20T13:26:54.391Z,15.00
2019-01-20T13:29:20.964Z,16.03
2019-01-20T13:31:47.339Z,18.83
2019-01-20T13:34:13.897Z,18.40
2019-01-20T13:36:40.223Z,17.80
2019-01-20T13:39:12.015Z,18.03
2019-01-20T13:41:38.622Z,17.97
2019-01-20T13:44:05.280Z,13.67
2019-01-20T13:46:32.407Z,16.20
2019-01-20T13:48:59.240Z,16.13
2019-01-20T13:51:25.880Z,15.63
2019-01-20T13:53:52.313Z,16.00
2019-01-20T13:56:18.777Z,16.60
2019-01-20T13:58:45.424Z,15.23
2019-01-20T14:01:11.842Z,18.77
2019-01-20T14:03:38.235Z,15.73
2019-01-20T14:06:04.661Z,19.47
2019-01-20T14:08:31.363Z,17.60
2019-01-20T14:10:57.700Z,18.10
2019-01-20T14:13:25.319Z,17.50
2019-01-20T14:15:51.660Z,17.30
2019-01-20T14:18:18.286Z,17.00
2019-01-20T14:20:44.936Z,19.17
2019-01-20T14:23:11.499Z,19.07
2019-01-20T14:25:38.654Z,18.23
2019-01-20T14:28:05.326Z,20.00
2019-01-20T14:30:32.919Z,18.27
2019-01-20T14:32:59.298Z,15.00
2019-01-20T14:35:25.931Z,18.37
2019-01-20T14:37:52.390Z,15.30
2019-01-20T14:40:20.191Z,14.87
2019-01-20T14:42:48.020Z,19.00
2019-01-20T14:45:17.324Z,24.00
2019-01-20T14:47:43.865Z,18.53
2019-01-20T14:50:18.551Z,19.87
2019-01-20T14:52:46.759Z,23.33
2019-01-20T14:55:15.343Z,28.10
2019-01-20T14:57:41.700Z,22.70
2019-01-20T15:00:31.191Z,26.60
2019-01-20T15:02:58.266Z,19.80
2019-01-20T15:05:24.628Z,24.70
2019-01-20T15:07:51.381Z,23.60
2019-01-20T15:10:18.064Z,23.10
2019-01-20T15:12:44.680Z,22.17
2019-01-20T15:15:17.331Z,22.30
2019-01-20T15:17:44.134Z,23.63
2019-01-20T15:20:12.643Z,20.17
2019-01-20T15:22:39.242Z,21.60
2019-01-20T15:25:11.223Z,29.07
2019-01-20T15:27:38.090Z,28.07
2019-01-20T15:30:13.161Z,25.33
2019-01-20T15:32:39.875Z,30.53
2019-01-20T15:35:06.751Z,27.50
2019-01-20T15:37:33.217Z,27.27
2019-01-20T15:39:59.872Z,27.13
2019-01-20T15:42:26.223Z,32.67
2019-01-20T15:44:52.536Z,31.03
2019-01-20T15:47:18.850Z,29.10
2019-01-20T15:49:45.714Z,25.53
2019-01-20T15:52:12.309Z,28.83
2019-01-20T15:54:38.648Z,30.07
2019-01-20T15:57:05.053Z,38.10
2019-01-20T15:59:31.705Z,36.73
2019-01-20T16:01:58.132Z,32.40
2019-01-20T16:04:24.504Z,28.33
2019-01-20T16:06:50.885Z,30.47
2019-01-20T16:09:17.323Z,35.20
2019-01-20T16:11:44.133Z,40.23
2019-01-20T16:14:10.865Z,62.00
2019-01-20T16:16:38.356Z,70.43
2019-01-20T16:19:04.835Z,36.40
2019-01-20T16:21:31.506Z,51.00
2019-01-20T16:23:58.138Z,48.63
2019-01-20T16:26:24.472Z,39.87
2019-01-20T16:28:51.300Z,37.23
2019-01-20T16:31:17.939Z,46.40
2019-01-20T16:33:44.265Z,34.27
2019-01-20T16:36:10.654Z,33.50
2019-01-20T16:38:37.072Z,35.03
2019-01-20T16:41:03.512Z,38.60
2019-01-20T16:43:30.395Z,37.20
2019-01-20T16:45:56.990Z,37.33
2019-01-20T16:48:23.629Z,33.57
2019-01-20T16:50:50.028Z,40.13
2019-01-20T16:53:16.587Z,36.93
2019-01-20T16:55:43.309Z,32.63
2019-01-20T16:58:09.771Z,33.07
2019-01-20T17:00:39.033Z,39.70
2019-01-20T17:03:05.480Z,37.70
2019-01-20T17:05:31.972Z,37.67
2019-01-20T17:07:58.409Z,41.50
2019-01-20T17:10:31.438Z,37.30
2019-01-20T17:12:58.175Z,39.40
2019-01-20T17:15:28.361Z,36.57
2019-01-20T17:17:55.030Z,33.87
2019-01-20T17:20:21.688Z,38.60
2019-01-20T17:22:48.521Z,33.90
2019-01-20T17:25:16.407Z,42.73
2019-01-20T17:27:43.669Z,41.70
2019-01-20T17:30:22.746Z,37.47
2019-01-20T17:32:49.591Z,38.20
2019-01-20T17:35:16.553Z,33.50
2019-01-20T17:37:43.333Z,50.10
2019-01-20T17:40:20.191Z,43.70
2019-01-20T17:42:47.912Z,37.83
2019-01-20T17:45:30.820Z,41.70
2019-01-20T17:47:57.445Z,44.10
2019-01-20T17:50:30.615Z,35.07
2019-01-20T17:52:57.178Z,42.93
2019-01-20T17:55:23.801Z,46.90
2019-01-20T17:57:50.174Z,50.13
2019-01-20T18:00:20.163Z,48.10
2019-01-20T18:02:46.612Z,48.20
2019-01-20T18:05:17.927Z,48.03
2019-01-20T18:07:44.594Z,46.77
2019-01-20T18:10:13.282Z,42.10
2019-01-20T18:12:40.175Z,43.60
2019-01-20T18:15:12.742Z,44.90
2019-01-20T18:17:39.607Z,40.87
2019-01-20T18:20:14.782Z,39.53
2019-01-20T18:22:41.369Z,40.03
2019-01-20T18:25:11.801Z,41.80
2019-01-20T18:27:38.452Z,41.73
2019-01-20T18:30:12.921Z,40.57
2019-01-20T18:32:39.513Z,37.00
2019-01-20T18:35:09.551Z,35.80
2019-01-20T18:37:36.393Z,32.90
2019-01-20T18:40:11.366Z,34.87
2019-01-20T18:42:37.717Z,36.13
2019-01-20T18:45:08.501Z,54.97
2019-01-20T18:47:35.089Z,49.93
2019-01-20T18:50:05.110Z,35.53
2019-01-20T18:52:31.485Z,37.30
2019-01-20T18:54:58.157Z,38.67
2019-01-20T18:57:24.505Z,38.50
2019-01-20T18:59:50.869Z,41.43
2019-01-20T19:02:17.598Z,40.93
2019-01-20T19:04:44.249Z,41.90
2019-01-20T19:07:10.552Z,46.70
2019-01-20T19:09:36.997Z,46.60
2019-01-20T19:12:04.555Z,41.23
2019-01-20T19:14:31.024Z,49.80
2019-01-20T19:16:57.356Z,35.67
2019-01-20T19:19:23.738Z,47.00
2019-01-20T19:21:50.070Z,39.83
2019-01-20T19:24:16.844Z,46.07
2019-01-20T19:26:43.263Z,49.57
2019-01-20T19:29:09.629Z,39.30
2019-01-20T19:31:36.063Z,44.37
2019-01-20T19:34:02.781Z,45.90
2019-01-20T19:36:29.159Z,43.83
2019-01-20T19:38:55.574Z,40.03
2019-01-20T19:41:22.251Z,46.67
2019-01-20T19:43:48.872Z,56.13
2019-01-20T19:46:16.425Z,45.13
2019-01-20T19:48:42.998Z,44.53
2019-01-20T19:51:09.586Z,48.43
2019-01-20T19:53:36.194Z,42.27
2019-01-20T19:56:03.527Z,46.43
2019-01-20T19:58:30.191Z,45.93
2019-01-20T20:00:57.071Z,46.70
2019-01-20T20:03:23.884Z,45.20
2019-01-20T20:05:50.299Z,48.73
2019-01-20T20:08:16.969Z,51.83
2019-01-20T20:10:43.563Z,43.80
2019-01-20T20:13:09.938Z,49.90
2019-01-20T20:15:36.486Z,49.13
2019-01-20T20:18:03.304Z,54.20
2019-01-20T20:20:29.842Z,49.80
2019-01-20T20:22:56.511Z,56.43
2019-01-20T20:25:24.325Z,50.77
2019-01-20T20:27:52.084Z,49.67
2019-01-20T20:30:23.415Z,44.27
2019-01-20T20:32:50.299Z,37.67
2019-01-20T20:35:16.880Z,39.87
2019-01-20T20:37:43.272Z,47.80
2019-01-20T20:40:14.497Z,45.93
2019-01-20T20:42:40.879Z,39.97
2019-01-20T20:45:12.265Z,43.67
2019-01-20T20:47:38.948Z,39.30
2019-01-20T20:50:09.899Z,48.43
2019-01-20T20:52:36.252Z,44.57
2019-01-20T20:55:05.049Z,45.13
2019-01-20T20:57:32.127Z,46.33
2019-01-20T20:59:58.934Z,40.97
2019-01-20T21:02:25.595Z,41.40
2019-01-20T21:04:52.093Z,49.87
2019-01-20T21:07:18.490Z,40.93
2019-01-20T21:09:45.319Z,41.67
2019-01-20T21:12:11.661Z,44.60
2019-01-20T21:14:38.356Z,39.80
2019-01-20T21:17:04.756Z,39.43
2019-01-20T21:19:32.417Z,46.43
2019-01-20T21:21:59.123Z,53.40
2019-01-20T21:24:25.835Z,40.07
2019-01-20T21:26:52.200Z,41.10
2019-01-20T21:29:18.827Z,40.13
2019-01-20T21:31:45.165Z,44.60
2019-01-20T21:34:11.540Z,37.17
2019-01-20T21:36:38.126Z,38.10
2019-01-20T21:39:05.937Z,43.50
2019-01-20T21:41:33.061Z,35.27
2019-01-20T21:43:59.367Z,33.43
2019-01-20T21:46:25.969Z,39.23
2019-01-20T21:48:52.596Z,38.40
2019-01-20T21:51:19.011Z,36.13
2019-01-20T21:53:45.607Z,36.10
2019-01-20T21:56:13.938Z,34.53
2019-01-20T21:58:40.609Z,41.40
2019-01-20T22:01:07.230Z,40.17
2019-01-20T22:03:33.874Z,39.67
2019-01-20T22:06:00.194Z,41.53
2019-01-20T22:08:26.550Z,39.20
2019-01-20T22:10:52.866Z,34.47
2019-01-20T22:13:19.214Z,40.83
2019-01-20T22:15:45.831Z,38.80
2019-01-20T22:18:12.410Z,37.57
2019-01-20T22:20:38.974Z,43.17
2019-01-20T22:23:05.317Z,38.17
2019-01-20T22:25:31.734Z,37.77
2019-01-20T22:27:58.400Z,35.77
2019-01-20T22:30:24.911Z,36.73
2019-01-20T22:32:51.575Z,39.90
2019-01-20T22:35:18.035Z,40.80
2019-01-20T22:37:44.764Z,37.73
2019-01-20T22:40:17.708Z,32.10
2019-01-20T22:42:44.508Z,37.77
2019-01-20T22:45:14.328Z,38.50
2019-01-20T22:47:41.147Z,35.70
2019-01-20T22:50:11.085Z,37.60
2019-01-20T22:52:37.589Z,40.07
2019-01-20T22:55:08.535Z,34.80
2019-01-20T22:57:35.403Z,33.23
2019-01-20T23:00:46.552Z,36.17
2019-01-20T23:03:14.481Z,32.57
2019-01-20T23:05:40.820Z,41.00
2019-01-20T23:08:07.552Z,40.37
2019-01-20T23:10:33.894Z,39.93
2019-01-20T23:13:00.247Z,35.73
2019-01-20T23:15:26.850Z,42.27
2019-01-20T23:17:53.219Z,32.23
2019-01-20T23:20:19.594Z,36.73
2019-01-20T23:22:46.219Z,34.97
2019-01-20T23:25:12.550Z,34.83
2019-01-20T23:27:39.043Z,47.07
2019-01-20T23:30:10.612Z,39.57
2019-01-20T23:32:37.159Z,34.47
2019-01-20T23:35:05.702Z,39.07
2019-01-20T23:37:32.020Z,38.40
2019-01-20T23:39:59.653Z,38.80
2019-01-20T23:42:26.015Z,36.70
2019-01-20T23:44:52.637Z,34.17
2019-01-20T23:47:19.219Z,39.60
2019-01-20T23:49:45.557Z,45.23
2019-01-20T23:52:12.167Z,40.60
2019-01-20T23:54:38.520Z,42.93
2019-01-20T23:57:04.821Z,36.47
2019-01-20T23:59:31.403Z,34.57
